Time;durP1;ratioP1;P1;durP2;ratioP2;P2;SDS_P1;SDS_P2;PMS_P1;PMS_P2;Temp;Humidity;BMP_temperature;BMP_pressure;BME280_temperature;BME280_humidity;BME280_pressure;Samples;Min_cycle;Max_cycle;Signal;HPM_P1;HPM_P2
2022/10/03 00:00:06;;;;;;;18.70;9.07;;;;;;;8.00;100.00;102505.13;5091625;28;20032;-87
2022/10/03 00:02:44;;;;;;;21.02;8.60;;;;;;;7.98;100.00;102510.44;5091625;28;20039;-87
2022/10/03 00:05:30;;;;;;;20.08;8.00;;;;;;;7.96;100.00;102507.00;5090756;28;20054;-87
2022/10/03 00:08:08;;;;;;;26.63;10.23;;;;;;;7.92;100.00;102513.28;5091452;28;20039;-86
2022/10/03 00:10:56;;;;;;;20.15;9.25;;;;;;;7.92;100.00;102505.41;5104278;28;20043;-87
2022/10/03 00:13:52;;;;;;;19.15;8.20;;;;;;;7.92;100.00;102507.19;5089601;28;20365;-87
2022/10/03 00:16:38;;;;;;;19.23;6.68;;;;;;;7.85;100.00;102509.19;5100903;28;20058;-87
2022/10/03 00:19:25;;;;;;;11.20;5.80;;;;;;;7.85;100.00;102507.41;5110248;28;20429;-87
2022/10/03 00:22:05;;;;;;;14.05;6.07;;;;;;;7.81;100.00;102504.97;5091090;28;20384;-87
2022/10/03 00:25:03;;;;;;;19.55;8.73;;;;;;;7.77;100.00;102503.34;5091973;28;20429;-87
2022/10/03 00:27:41;;;;;;;26.58;10.20;;;;;;;7.74;100.00;102512.19;5109169;28;20031;-87
2022/10/03 00:30:12;;;;;;;26.98;10.75;;;;;;;7.67;100.00;102517.69;5110934;28;20348;-87
2022/10/03 00:33:13;;;;;;;33.05;11.80;;;;;;;7.70;100.00;102514.97;5108931;28;20076;-87
2022/10/03 00:35:41;;;;;;;28.58;11.27;;;;;;;7.64;100.00;102515.19;5110012;28;20011;-87
2022/10/03 00:38:26;;;;;;;26.75;10.63;;;;;;;7.64;100.00;102516.03;5110914;28;20480;-87
2022/10/03 00:41:19;;;;;;;18.80;8.30;;;;;;;7.63;100.00;102522.19;5111033;27;20030;-87
2022/10/03 00:43:56;;;;;;;21.27;9.15;;;;;;;7.57;100.00;102521.53;5107659;28;20075;-86
2022/10/03 00:46:33;;;;;;;22.58;8.02;;;;;;;7.57;100.00;102521.53;5110555;28;20059;-86
2022/10/03 00:49:36;;;;;;;22.17;8.70;;;;;;;7.59;100.00;102525.78;5111684;28;20019;-86
2022/10/03 00:52:17;;;;;;;25.33;9.52;;;;;;;7.53;100.00;102537.34;5110429;28;20098;-86
2022/10/03 00:54:55;;;;;;;23.13;9.18;;;;;;;7.52;100.00;102530.41;5109618;28;20061;-86
2022/10/03 00:57:51;;;;;;;23.42;9.30;;;;;;;7.52;100.00;102538.25;5109152;28;20030;-86
2022/10/03 01:00:31;;;;;;;25.67;10.52;;;;;;;7.52;100.00;102533.03;5110005;28;20031;-86
2022/10/03 01:02:57;;;;;;;22.63;10.50;;;;;;;7.47;100.00;102540.19;5102736;28;20027;-87
2022/10/03 01:05:40;;;;;;;23.83;10.13;;;;;;;7.49;100.00;102550.59;5090428;28;20024;-87
2022/10/03 01:08:30;;;;;;;19.75;7.80;;;;;;;7.49;100.00;102545.38;5089998;28;20109;-87
2022/10/03 01:11:12;;;;;;;19.75;6.90;;;;;;;7.43;100.00;102553.44;5097274;28;20042;-87
2022/10/03 01:13:37;;;;;;;15.48;6.15;;;;;;;7.42;100.00;102555.19;5106237;28;20092;-87
2022/10/03 01:16:25;;;;;;;15.63;6.50;;;;;;;7.44;100.00;102560.38;5090448;28;20032;-87
2022/10/03 01:18:51;;;;;;;14.52;6.80;;;;;;;7.39;100.00;102554.44;5090449;28;20032;-88
2022/10/03 01:21:30;;;;;;;18.55;7.53;;;;;;;7.37;100.00;102566.72;5104421;28;20023;-87
2022/10/03 01:23:58;;;;;;;20.13;7.50;;;;;;;7.36;100.00;102560.63;5110527;28;20508;-88
2022/10/03 01:26:52;;;;;;;14.75;6.63;;;;;;;7.41;100.00;102569.19;5109193;28;20031;-88
2022/10/03 01:32:30;;;;;;;16.60;6.60;;;;;;;7.30;100.00;102568.69;5090237;28;20031;-88
2022/10/03 01:35:08;;;;;;;18.40;7.10;;;;;;;7.27;100.00;102567.94;5089235;28;20055;-88
2022/10/03 01:37:53;;;;;;;15.02;7.97;;;;;;;7.33;100.00;102562.50;5090023;28;20069;-87
2022/10/03 01:40:24;;;;;;;13.30;7.07;;;;;;;7.34;100.00;102565.06;5098591;28;20047;-87
2022/10/03 01:43:14;;;;;;;23.40;8.27;;;;;;;7.33;100.00;102560.75;5100103;28;20040;-87
2022/10/03 01:46:15;;;;;;;19.08;7.43;;;;;;;7.38;100.00;102569.28;5088510;28;20036;-88
2022/10/03 01:49:20;;;;;;;14.52;7.35;;;;;;;7.40;100.00;102577.09;5089036;28;20032;-87
2022/10/03 01:52:16;;;;;;;14.55;7.22;;;;;;;7.33;100.00;102576.44;5089443;28;20035;-88
2022/10/03 01:55:18;;;;;;;12.00;6.40;;;;;;;7.34;100.00;102567.69;5089491;28;20020;-87
2022/10/03 01:57:52;;;;;;;14.52;6.85;;;;;;;7.36;100.00;102565.88;5093451;28;20028;-87
2022/10/03 02:00:22;;;;;;;16.20;6.93;;;;;;;7.32;100.00;102569.50;5087643;28;20035;-87
2022/10/03 02:03:28;;;;;;;14.98;6.75;;;;;;;7.41;100.00;102568.34;5088978;28;20039;-87
2022/10/03 02:06:20;;;;;;;15.32;6.70;;;;;;;7.36;100.00;102565.88;5058791;28;20488;-88
2022/10/03 02:09:09;;;;;;;17.15;6.93;;;;;;;7.35;100.00;102569.41;5088381;28;20366;-87
2022/10/03 02:11:57;;;;;;;17.80;7.68;;;;;;;7.33;100.00;102565.97;5093404;28;20036;-88
2022/10/03 02:14:39;;;;;;;13.48;7.10;;;;;;;7.30;100.00;102576.56;5056320;28;20040;-87
2022/10/03 02:17:17;;;;;;;17.35;7.15;;;;;;;7.33;100.00;102570.34;5107835;28;20024;-87
2022/10/03 02:19:58;;;;;;;18.15;7.40;;;;;;;7.34;100.00;102572.06;5106653;28;20035;-87
2022/10/03 02:22:41;;;;;;;16.50;7.13;;;;;;;7.38;100.00;102578.91;5109423;28;20424;-87
2022/10/03 02:25:30;;;;;;;18.48;7.50;;;;;;;7.33;100.00;102579.06;5107388;28;20027;-87
2022/10/03 02:28:16;;;;;;;17.65;7.00;;;;;;;7.23;100.00;102580.28;5104013;28;20032;-88
2022/10/03 02:31:00;;;;;;;13.90;7.30;;;;;;;7.28;100.00;102573.13;5100812;28;20031;-87
2022/10/03 02:33:56;;;;;;;13.95;7.40;;;;;;;7.28;100.00;102575.75;5095172;28;20024;-87
2022/10/03 02:36:45;;;;;;;15.27;7.75;;;;;;;7.30;100.00;102573.94;5111824;28;20019;-87
2022/10/03 02:39:20;;;;;;;14.95;7.32;;;;;;;7.28;100.00;102578.38;5110579;28;20315;-87
2022/10/03 02:42:23;;;;;;;16.02;8.02;;;;;;;7.27;100.00;102589.75;5112586;28;20104;-87
2022/10/03 02:45:08;;;;;;;16.95;7.68;;;;;;;7.22;100.00;102573.34;5112487;28;20071;-87
2022/10/03 02:48:03;;;;;;;14.68;7.38;;;;;;;7.19;100.00;102576.88;5112727;28;20077;-87
2022/10/03 02:50:46;;;;;;;19.27;8.35;;;;;;;7.20;100.00;102576.00;5072148;28;20211;-87
2022/10/03 02:53:33;;;;;;;16.92;7.55;;;;;;;7.19;100.00;102569.03;5091286;28;20013;-87
2022/10/03 02:56:24;;;;;;;16.08;7.32;;;;;;;7.16;100.00;102563.88;5091085;28;20024;-87
2022/10/03 02:59:07;;;;;;;13.27;6.75;;;;;;;7.15;100.00;102580.50;5105997;28;20490;-87
2022/10/03 03:02:14;;;;;;;15.40;7.65;;;;;;;7.16;100.00;102573.50;5111453;28;20062;-87
2022/10/03 03:04:58;;;;;;;18.27;7.47;;;;;;;7.13;100.00;102573.59;5062887;28;20076;-87
2022/10/03 03:07:59;;;;;;;14.07;7.28;;;;;;;7.07;100.00;102579.03;5112424;28;20102;-87
2022/10/03 03:10:38;;;;;;;16.70;6.82;;;;;;;7.05;100.00;102576.47;5113387;28;20300;-87
2022/10/03 03:13:28;;;;;;;14.68;7.63;;;;;;;7.05;100.00;102580.84;5092671;28;20474;-87
2022/10/03 03:16:15;;;;;;;15.50;7.30;;;;;;;7.04;100.00;102573.91;5092738;28;20027;-87
2022/10/03 03:18:48;;;;;;;16.05;7.38;;;;;;;6.94;100.00;102578.56;5092372;28;20054;-87
2022/10/03 03:21:33;;;;;;;13.95;7.38;;;;;;;6.98;100.00;102576.72;5108749;28;20049;-87
2022/10/03 03:24:23;;;;;;;17.17;7.50;;;;;;;6.97;100.00;102588.94;5111131;28;20030;-86
2022/10/03 03:26:54;;;;;;;14.35;7.57;;;;;;;6.89;100.00;102576.09;5111747;28;20034;-87
2022/10/03 03:29:34;;;;;;;16.20;7.18;;;;;;;6.93;100.00;102576.84;5111713;28;20099;-87
2022/10/03 03:32:09;;;;;;;16.80;7.90;;;;;;;6.89;100.00;102583.94;5112720;28;20031;-87
2022/10/03 03:34:41;;;;;;;11.50;6.80;;;;;;;6.86;100.00;102586.66;5111018;28;20039;-87
2022/10/03 03:37:12;;;;;;;12.85;7.70;;;;;;;6.92;100.00;102590.84;5112422;28;20034;-87
2022/10/03 03:39:53;;;;;;;14.65;7.28;;;;;;;6.90;100.00;102590.91;5111297;28;20019;-87
2022/10/03 03:42:54;;;;;;;16.98;6.90;;;;;;;6.94;100.00;102594.28;5100546;28;20028;-87
2022/10/03 03:45:35;;;;;;;11.48;7.07;;;;;;;6.82;100.00;102592.03;5027698;28;20092;-87
2022/10/03 03:48:28;;;;;;;13.45;6.97;;;;;;;6.87;100.00;102590.13;5081686;28;20032;-85
2022/10/03 03:51:12;;;;;;;;;;;;;;;6.96;100.00;102587.22;5090772;28;20028;-85
2022/10/03 03:54:16;;;;;;;12.50;6.43;;;;;;;6.86;100.00;102594.50;5091712;28;19907;-86
2022/10/03 03:57:09;;;;;;;14.32;7.78;;;;;;;6.78;100.00;102593.88;5089483;28;20029;-87
2022/10/03 03:59:59;;;;;;;11.98;6.88;;;;;;;6.77;100.00;102592.16;5090634;28;20028;-87
2022/10/03 04:02:51;;;;;;;16.05;7.28;;;;;;;6.78;100.00;102595.63;5090541;28;20069;-87
2022/10/03 04:05:43;;;;;;;12.40;7.40;;;;;;;6.80;100.00;102597.28;5091015;28;20392;-87
2022/10/03 04:08:20;;;;;;;10.43;6.40;;;;;;;6.70;100.00;102600.22;5089873;28;20484;-87
2022/10/03 04:10:52;;;;;;;12.23;7.22;;;;;;;6.75;100.00;102598.31;5089912;28;20051;-87
2022/10/03 04:13:46;;;;;;;15.55;7.18;;;;;;;6.73;100.00;102598.38;5104128;28;20023;-87
2022/10/03 04:19:52;;;;;;;13.25;6.93;;;;;;;6.73;100.00;102603.59;5091906;28;20039;-87
2022/10/03 04:22:32;;;;;;;14.75;7.43;;;;;;;6.75;100.00;102612.25;5094818;28;20024;-87
2022/10/03 04:25:32;;;;;;;12.77;7.28;;;;;;;6.74;100.00;102607.09;5108916;28;20072;-87
2022/10/03 04:28:33;;;;;;;15.63;7.70;;;;;;;6.73;100.00;102608.84;5098210;28;20051;-86
2022/10/03 04:31:19;;;;;;;13.10;7.00;;;;;;;6.69;100.00;102604.59;5110249;28;20034;-86
2022/10/03 04:34:03;;;;;;;13.65;7.28;;;;;;;6.70;100.00;102598.47;5094374;28;20103;-86
2022/10/03 04:36:47;;;;;;;14.20;7.00;;;;;;;6.70;100.00;102611.53;5090753;28;20034;-86
2022/10/03 04:39:28;;;;;;;11.55;6.65;;;;;;;6.66;100.00;102612.53;5088419;28;20081;-86
2022/10/03 04:42:12;;;;;;;12.52;7.22;;;;;;;6.66;100.00;102609.94;5090862;28;20468;-86
2022/10/03 04:44:56;;;;;;;12.30;7.60;;;;;;;6.63;100.00;102602.19;5109588;28;20621;-86
2022/10/03 04:47:33;;;;;;;14.25;6.95;;;;;;;6.64;100.00;102605.66;5110036;28;20020;-86
2022/10/03 04:50:11;;;;;;;15.75;7.22;;;;;;;6.68;100.00;102602.88;5109110;28;20080;-86
2022/10/03 04:52:59;;;;;;;17.05;7.90;;;;;;;6.72;100.00;102599.28;5110012;28;20072;-86
2022/10/03 04:55:34;;;;;;;14.68;7.00;;;;;;;6.71;100.00;102594.09;5109063;28;20019;-86
2022/10/03 04:58:02;;;;;;;15.82;7.40;;;;;;;6.69;100.00;102602.00;5110367;28;20057;-86
2022/10/03 05:00:45;;;;;;;14.85;7.10;;;;;;;6.72;100.00;102598.44;5108092;28;20023;-86
2022/10/03 05:03:21;;;;;;;10.15;6.60;;;;;;;6.72;100.00;102603.66;5108102;28;20063;-86
2022/10/03 05:05:55;;;;;;;11.95;6.63;;;;;;;6.68;100.00;102609.88;5108281;28;20093;-86
2022/10/03 05:08:51;;;;;;;11.43;6.30;;;;;;;6.64;100.00;102616.09;5110070;28;20023;-86
2022/10/03 05:11:46;;;;;;;15.18;6.90;;;;;;;6.64;100.00;102605.66;5109804;28;20059;-85
2022/10/03 05:14:22;;;;;;;12.13;6.63;;;;;;;6.59;100.00;102619.72;5106956;28;20032;-86
2022/10/03 05:17:05;;;;;;;12.02;6.50;;;;;;;6.55;100.00;102615.47;5102597;28;20027;-86
2022/10/03 05:19:52;;;;;;;11.98;6.22;;;;;;;6.60;100.00;102626.66;5107547;28;20039;-86
2022/10/03 05:22:33;;;;;;;11.93;6.32;;;;;;;6.54;100.00;102623.38;5108216;28;20075;-86
2022/10/03 05:25:38;;;;;;;13.40;6.70;;;;;;;6.57;100.00;102625.91;5110196;28;20031;-86
2022/10/03 05:28:27;;;;;;;11.45;6.15;;;;;;;6.47;100.00;102627.06;5096509;28;20020;-86
2022/10/03 05:31:02;;;;;;;14.07;6.25;;;;;;;6.47;100.00;102620.06;5110412;28;20028;-86
2022/10/03 05:33:39;;;;;;;11.00;6.20;;;;;;;6.50;100.00;102629.59;5096527;28;20490;-86
2022/10/03 05:36:14;;;;;;;16.77;7.15;;;;;;;6.46;100.00;102634.06;5090254;28;20375;-86
2022/10/03 05:39:19;;;;;;;11.55;6.50;;;;;;;6.51;100.00;102639.16;5088561;28;20026;-86
2022/10/03 05:42:02;;;;;;;13.05;6.90;;;;;;;6.48;100.00;102640.09;5098375;28;20157;-86
2022/10/03 05:44:57;;;;;;;17.40;6.65;;;;;;;6.51;100.00;102641.75;5109969;28;20375;-86
2022/10/03 05:47:48;;;;;;;11.93;7.22;;;;;;;6.53;100.00;102639.97;5088053;28;20040;-86
2022/10/03 05:50:35;;;;;;;13.82;7.43;;;;;;;6.53;100.00;102647.81;5087939;28;20391;-86
2022/10/03 05:53:16;;;;;;;14.20;7.00;;;;;;;6.53;100.00;102645.19;5091876;28;20031;-86
2022/10/03 05:55:52;;;;;;;18.23;7.63;;;;;;;6.56;100.00;102639.88;5107769;28;20016;-85
2022/10/03 05:58:38;;;;;;;19.88;8.52;;;;;;;6.60;100.00;102642.34;5107896;28;20450;-86
2022/10/03 06:01:24;;;;;;;13.15;7.47;;;;;;;6.65;100.00;102654.44;5108320;28;20038;-86
2022/10/03 06:04:42;;;;;;;12.43;7.28;;;;;;;6.69;100.00;102645.59;5107540;28;20019;-86
2022/10/03 06:07:26;;;;;;;18.58;7.25;;;;;;;6.69;100.00;102651.69;5066760;28;20096;-87
2022/10/03 06:10:10;;;;;;;13.43;7.40;;;;;;;6.67;100.00;102652.63;5108572;28;20028;-87
2022/10/03 06:13:10;;;;;;;14.30;7.80;;;;;;;6.75;100.00;102656.75;5109653;28;20059;-87
2022/10/03 06:15:38;;;;;;;20.02;7.88;;;;;;;6.77;100.00;102662.78;5102744;28;20008;-87
2022/10/03 06:18:38;;;;;;;17.25;8.55;;;;;;;6.88;100.00;102660.72;5088423;28;20028;-88
2022/10/03 06:21:25;;;;;;;14.50;8.70;;;;;;;6.89;100.00;102666.81;5065887;28;20101;-87
2022/10/03 06:24:48;;;;;;;16.55;8.20;;;;;;;6.99;100.00;102659.56;5108783;28;20039;-87
2022/10/03 06:27:13;;;;;;;16.20;8.68;;;;;;;7.04;100.00;102662.88;5026177;28;20049;-84
2022/10/03 06:30:10;;;;;;;18.80;8.98;;;;;;;7.08;100.00;102669.72;5026866;28;20026;-84
2022/10/03 06:32:47;;;;;;;16.42;8.80;;;;;;;7.09;100.00;102666.22;5075569;28;20040;-83
2022/10/03 06:35:44;;;;;;;13.43;7.85;;;;;;;7.10;100.00;102673.16;5104277;28;20030;-84
2022/10/03 06:38:41;;;;;;;14.55;8.75;;;;;;;7.12;100.00;102672.22;5099483;28;20024;-84
2022/10/03 06:41:31;;;;;;;15.73;8.77;;;;;;;7.17;100.00;102674.69;5100855;28;20026;-84
2022/10/03 06:44:15;;;;;;;17.17;9.80;;;;;;;7.19;100.00;102667.63;5097611;28;20046;-83
2022/10/03 06:47:14;;;;;;;18.85;9.50;;;;;;;7.27;100.00;102664.81;5096091;28;20392;-83
2022/10/03 06:50:18;;;;;;;18.58;9.60;;;;;;;7.35;100.00;102668.91;5100382;28;20067;-83
2022/10/03 06:53:25;;;;;;;15.48;10.27;;;;;;;7.46;100.00;102660.69;5096793;28;20018;-83
2022/10/03 06:56:23;;;;;;;15.93;10.65;;;;;;;7.57;100.00;102669.06;5080802;28;20039;-88
2022/10/03 06:59:10;;;;;;;16.38;10.23;;;;;;;7.67;100.00;102669.66;5101918;28;20050;-89
2022/10/03 07:02:05;;;;;;;16.45;10.40;;;;;;;7.77;100.00;102677.16;5107639;28;20028;-89
2022/10/03 07:05:01;;;;;;;18.52;10.80;;;;;;;7.92;100.00;102683.63;5087497;28;20032;-89
2022/10/03 07:07:48;;;;;;;20.85;10.98;;;;;;;8.02;100.00;102687.69;5087705;28;20101;-85
2022/10/03 07:10:37;;;;;;;19.83;10.95;;;;;;;8.12;100.00;102677.75;5087310;28;20031;-89
2022/10/03 07:13:18;;;;;;;17.52;10.40;;;;;;;8.24;100.00;102682.53;5091774;28;20023;-88
2022/10/03 07:15:50;;;;;;;22.20;10.88;;;;;;;8.30;100.00;102681.47;5107603;28;20046;-89
2022/10/03 07:18:53;;;;;;;19.40;10.87;;;;;;;8.39;100.00;102673.31;5108773;28;20965;-89
2022/10/03 07:21:48;;;;;;;17.23;10.38;;;;;;;8.51;100.00;102678.13;5111442;28;20276;-85
2022/10/03 07:24:40;;;;;;;19.35;9.82;;;;;;;8.63;100.00;102682.94;5080107;28;20039;-86
2022/10/03 07:27:18;;;;;;;21.42;11.63;;;;;;;8.80;100.00;102687.56;5090125;28;20518;-85
2022/10/03 07:30:03;;;;;;;19.02;11.70;;;;;;;8.91;100.00;102692.44;5092705;28;20039;-85
2022/10/03 07:32:51;;;;;;;20.67;11.85;;;;;;;8.98;100.00;102692.13;5103041;28;20128;-86
2022/10/03 07:39:01;;;;;;;20.33;10.82;;;;;;;9.20;100.00;102697.41;5093360;28;20039;-84
2022/10/03 07:41:53;;;;;;;21.33;11.90;;;;;;;9.31;100.00;102695.25;5090012;28;20032;-85
2022/10/03 07:44:34;;;;;;;17.05;10.38;;;;;;;9.42;100.00;102698.28;5081501;28;20131;-83
2022/10/03 07:47:32;;;;;;;18.65;11.35;;;;;;;9.58;100.00;102698.53;5091829;28;20053;-84
2022/10/03 07:50:04;;;;;;;17.48;10.50;;;;;;;9.67;100.00;102707.84;5103976;28;20020;-87
2022/10/03 07:52:39;;;;;;;21.98;11.90;;;;;;;9.81;100.00;102704.66;5091814;28;20483;-90
2022/10/03 07:55:39;;;;;;;18.63;10.90;;;;;;;9.94;100.00;102706.69;5093006;28;20353;-88
2022/10/03 07:58:19;;;;;;;19.48;10.40;;;;;;;10.11;100.00;102708.63;5067512;28;20040;-87
2022/10/03 08:00:46;;;;;;;16.75;10.60;;;;;;;10.32;100.00;102713.00;5093543;28;20122;-86
2022/10/03 08:03:42;;;;;;;21.23;10.60;;;;;;;10.43;100.00;102717.81;5103506;28;20015;-86
2022/10/03 08:06:30;;;;;;;19.27;10.70;;;;;;;10.63;100.00;102712.53;5102328;28;20491;-88
2022/10/03 08:09:23;;;;;;;16.88;10.13;;;;;;;10.79;100.00;102711.84;5089349;28;20431;-86
2022/10/03 08:12:16;;;;;;;13.88;9.02;;;;;;;10.87;100.00;102710.59;5110020;28;20042;-87
2022/10/03 08:15:03;;;;;;;20.02;9.27;;;;;;;11.02;100.00;102713.44;5100363;28;20436;-86
2022/10/03 08:18:05;;;;;;;18.50;9.40;;;;;;;11.20;100.00;102712.56;5105683;28;20028;-86
2022/10/03 08:20:54;;;;;;;19.38;8.98;;;;;;;11.39;100.00;102707.31;5092994;28;20035;-86
2022/10/03 08:23:37;;;;;;;16.20;8.77;;;;;;;11.52;100.00;102713.69;5100388;28;20035;-86
2022/10/03 08:26:03;;;;;;;13.95;8.57;;;;;;;11.70;100.00;102697.00;5100987;28;20031;-85
2022/10/03 08:28:37;;;;;;;16.13;8.43;;;;;;;11.80;100.00;102708.84;5110180;28;20675;-78
2022/10/03 08:31:03;;;;;;;14.82;7.45;;;;;;;11.90;100.00;102707.44;5110149;28;20051;-91
2022/10/03 08:33:40;;;;;;;16.75;7.63;;;;;;;12.09;100.00;102709.19;5108488;28;20058;-87
2022/10/03 08:36:30;;;;;;;15.77;7.38;;;;;;;12.30;100.00;102707.22;5104370;28;20034;-87
2022/10/03 08:39:33;;;;;;;14.55;7.32;;;;;;;12.48;100.00;102703.66;5092607;28;20049;-86
2022/10/03 08:42:33;;;;;;;17.92;7.00;;;;;;;12.69;100.00;102709.56;5108932;28;20039;-81
2022/10/03 08:45:31;;;;;;;16.55;6.65;;;;;;;12.93;100.00;102712.69;5092027;28;20060;-83
2022/10/03 08:48:27;;;;;;;15.85;6.22;;;;;;;13.08;100.00;102718.00;5090916;28;20036;-85
2022/10/03 08:51:32;;;;;;;13.32;6.20;;;;;;;13.21;100.00;102720.00;5088151;28;20035;-85
2022/10/03 08:54:23;;;;;;;15.98;6.10;;;;;;;13.40;100.00;102718.91;5087744;28;20348;-86
2022/10/03 08:56:51;;;;;;;13.18;5.45;;;;;;;13.53;99.13;102719.06;5057946;28;20042;-87
2022/10/03 08:59:38;;;;;;;10.55;6.00;;;;;;;13.77;99.94;102722.09;5101914;28;20034;-86
2022/10/03 09:02:31;;;;;;;13.70;6.13;;;;;;;13.89;99.29;102715.25;5104998;28;20113;-87
2022/10/03 09:05:07;;;;;;;;;;;;;;;14.10;100.00;102717.50;5109684;28;20097;-87
2022/10/03 09:07:52;;;;;;;13.50;5.82;;;;;;;14.22;98.83;102707.13;5109103;28;19926;-87
2022/10/03 09:10:36;;;;;;;12.98;5.97;;;;;;;14.50;99.19;102712.50;5108569;28;20475;-87
2022/10/03 09:13:13;;;;;;;12.45;5.43;;;;;;;14.55;95.18;102725.47;5103699;28;20030;-87
2022/10/03 09:16:07;;;;;;;12.10;4.50;;;;;;;14.70;92.89;102724.53;5105828;28;20023;-87
2022/10/03 09:18:53;;;;;;;12.65;4.35;;;;;;;14.68;94.55;102718.47;5110864;28;20036;-87
2022/10/03 09:21:43;;;;;;;10.88;3.92;;;;;;;14.89;93.39;102714.50;5106866;28;20030;-86
2022/10/03 09:24:17;;;;;;;14.35;4.07;;;;;;;14.97;90.54;102709.56;5090461;28;20024;-86
2022/10/03 09:27:11;;;;;;;10.30;4.07;;;;;;;15.11;89.84;102716.66;5087053;28;20072;-86
2022/10/03 09:30:11;;;;;;;11.68;3.85;;;;;;;15.16;90.61;102716.34;5089877;28;20028;-86
2022/10/03 09:33:13;;;;;;;14.82;3.85;;;;;;;15.33;90.87;102708.19;5088176;28;20119;-86
2022/10/03 09:36:16;;;;;;;13.18;4.35;;;;;;;15.50;89.50;102705.28;5089593;28;20027;-86
2022/10/03 09:38:54;;;;;;;15.15;4.05;;;;;;;15.70;87.07;102689.91;5092490;28;20054;-86
2022/10/03 09:41:22;;;;;;;12.95;4.10;;;;;;;15.77;83.56;102694.72;5106530;28;20038;-84
2022/10/03 09:44:17;;;;;;;9.75;3.40;;;;;;;15.75;86.09;102687.81;5109079;28;20488;-84
2022/10/03 09:47:26;;;;;;;12.45;3.58;;;;;;;15.71;86.40;102686.31;5107827;28;20175;-84
2022/10/03 09:50:29;;;;;;;10.70;3.00;;;;;;;15.68;85.19;102691.81;5109652;28;20023;-84
2022/10/03 09:53:18;;;;;;;11.75;3.28;;;;;;;15.66;83.75;102690.13;5108175;28;20032;-86
2022/10/03 09:56:18;;;;;;;10.13;3.45;;;;;;;15.65;84.63;102679.59;5109110;28;20015;-85
2022/10/03 09:59:15;;;;;;;11.18;3.80;;;;;;;15.69;86.03;102688.22;5108259;28;20313;-84
2022/10/03 10:01:49;;;;;;;11.05;3.00;;;;;;;15.73;81.62;102679.09;5087975;28;20488;-85
2022/10/03 10:04:48;;;;;;;8.93;2.90;;;;;;;15.87;83.82;102684.31;5107279;28;20039;-82
2022/10/03 10:07:51;;;;;;;9.85;2.53;;;;;;;15.99;84.34;102684.34;5109173;28;20055;-84
2022/10/03 10:10:46;;;;;;;8.32;2.67;;;;;;;15.95;83.48;102676.69;5107364;28;20035;-84
2022/10/03 10:13:29;;;;;;;11.98;2.70;;;;;;;15.82;79.76;102678.47;5108790;28;20020;-86
2022/10/03 10:16:13;;;;;;;19.50;2.90;;;;;;;15.91;78.28;102678.69;5109964;28;20023;-85
2022/10/03 10:18:57;;;;;;;7.90;2.25;;;;;;;16.13;77.14;102671.94;5108800;28;20024;-85
2022/10/03 10:21:39;;;;;;;8.30;2.28;;;;;;;16.17;79.13;102682.25;5108473;28;20414;-85
2022/10/03 10:24:29;;;;;;;12.13;2.35;;;;;;;16.15;76.36;102684.16;5108352;28;20028;-85
2022/10/03 10:27:25;;;;;;;10.60;2.55;;;;;;;16.20;79.52;102678.53;5109237;28;20526;-86
2022/10/03 10:30:19;;;;;;;8.80;2.40;;;;;;;16.18;78.21;102681.31;5109019;28;20409;-85
2022/10/03 10:33:16;;;;;;;12.15;3.00;;;;;;;16.19;79.14;102677.69;5110381;28;20381;-85
2022/10/03 10:35:53;;;;;;;13.63;3.42;;;;;;;16.27;78.77;102664.72;5110036;28;20016;-85
2022/10/03 10:38:59;;;;;;;10.65;2.97;;;;;;;16.49;78.15;102663.25;5106993;28;20027;-85
2022/10/03 10:41:58;;;;;;;8.20;2.60;;;;;;;16.61;76.99;102667.69;5108410;28;20020;-85
2022/10/03 10:44:41;;;;;;;10.38;2.22;;;;;;;16.73;74.75;102671.31;5107165;28;20047;-85
2022/10/03 10:47:20;;;;;;;10.50;2.10;;;;;;;16.63;75.83;102676.41;5109446;28;20027;-85
2022/10/03 10:50:24;;;;;;;8.98;2.38;;;;;;;16.75;76.57;102675.56;5109778;28;20024;-86
2022/10/03 10:53:28;;;;;;;10.48;2.47;;;;;;;16.76;75.73;102679.94;5109913;28;20034;-86
2022/10/03 10:56:45;;;;;;;7.28;1.83;;;;;;;16.80;77.46;102676.09;5112353;28;20113;-85
2022/10/03 10:59:35;;;;;;;8.43;2.13;;;;;;;16.74;75.84;102676.53;5068553;28;20059;-86
2022/10/03 11:02:38;;;;;;;9.18;2.20;;;;;;;16.82;75.82;102674.19;5112438;28;20032;-86
2022/10/03 11:05:41;;;;;;;7.50;2.00;;;;;;;16.89;74.84;102675.47;5111489;28;20061;-86
2022/10/03 11:08:37;;;;;;;8.98;2.03;;;;;;;16.99;73.29;102677.44;5112417;28;20190;-86
2022/10/03 11:11:47;;;;;;;6.55;1.73;;;;;;;17.21;73.73;102685.56;5112437;28;20131;-86
2022/10/03 11:14:50;;;;;;;5.30;1.85;;;;;;;17.36;70.65;102680.94;5111572;28;20130;-86
2022/10/03 11:17:37;;;;;;;8.10;1.85;;;;;;;17.45;68.25;102674.94;5113163;28;20341;-86
2022/10/03 11:20:40;;;;;;;8.85;1.90;;;;;;;17.58;69.01;102666.88;5109766;28;20114;-86
2022/10/03 11:23:39;;;;;;;9.43;1.63;;;;;;;17.40;67.07;102661.13;5111934;28;20464;-85
2022/10/03 11:26:37;;;;;;;7.07;1.80;;;;;;;17.47;69.55;102657.91;5109927;28;20019;-85
2022/10/03 11:29:50;;;;;;;7.63;1.77;;;;;;;17.51;67.02;102654.03;5093097;28;20036;-85
2022/10/03 11:32:34;;;;;;;;;;;;;;;17.71;71.15;102651.75;5107770;28;20024;-85
2022/10/03 11:35:18;;;;;;;8.27;1.92;;;;;;;17.72;64.61;102651.63;5092246;28;20006;-85
2022/10/03 11:37:53;;;;;;;8.23;1.77;;;;;;;17.71;63.13;102649.09;5108437;28;20032;-85
2022/10/03 11:40:26;;;;;;;8.30;1.95;;;;;;;17.87;65.65;102649.63;5107224;28;20430;-85
2022/10/03 11:43:33;;;;;;;6.40;1.73;;;;;;;18.01;66.47;102649.44;5107505;28;20043;-85
2022/10/03 11:46:26;;;;;;;9.93;1.83;;;;;;;18.08;66.00;102652.47;5092385;28;20032;-86
2022/10/03 11:49:24;;;;;;;8.82;2.30;;;;;;;18.12;67.50;102649.44;5107947;28;20032;-86
2022/10/03 11:52:06;;;;;;;8.07;1.80;;;;;;;18.07;65.38;102653.44;5092296;28;20520;-85
2022/10/03 11:54:36;;;;;;;8.23;2.38;;;;;;;18.28;63.17;102653.56;5107175;28;20042;-85
2022/10/03 11:57:22;;;;;;;7.50;1.65;;;;;;;18.34;66.77;102650.41;5107531;28;20403;-85
2022/10/03 12:00:11;;;;;;;6.97;1.90;;;;;;;18.63;63.85;102657.03;5090934;28;20027;-85
2022/10/03 12:03:05;;;;;;;6.95;1.63;;;;;;;18.55;62.28;102646.09;5079994;28;20415;-85
2022/10/03 12:08:53;;;;;;;10.20;1.90;;;;;;;18.55;63.89;102646.09;5089870;28;20782;-84
2022/10/03 12:08:57;;;;;;;6.90;1.90;;;;;;;18.42;59.29;102642.69;5091497;28;20115;-85
2022/10/03 12:11:32;;;;;;;6.10;1.80;;;;;;;18.41;61.81;102640.97;5107556;28;20387;-85
2022/10/03 12:14:00;;;;;;;6.03;1.80;;;;;;;18.63;59.98;102654.34;5092010;28;20024;-85
2022/10/03 12:16:44;;;;;;;7.95;1.80;;;;;;;18.75;59.18;102637.38;5089830;28;20246;-85
2022/10/03 12:19:29;;;;;;;5.55;1.63;;;;;;;18.93;59.94;102634.22;5109004;28;20387;-86
2022/10/03 12:21:58;;;;;;;9.05;1.80;;;;;;;18.95;57.53;102626.94;5106975;28;20031;-85
2022/10/03 12:24:30;;;;;;;8.52;1.75;;;;;;;19.02;57.30;102633.47;5092052;28;20024;-85
2022/10/03 12:27:17;;;;;;;7.65;1.95;;;;;;;18.94;61.05;102633.25;5091082;28;20065;-86
2022/10/03 12:29:51;;;;;;;7.05;1.60;;;;;;;18.74;57.91;102630.34;5090616;28;20105;-85
2022/10/03 12:32:40;;;;;;;6.38;1.60;;;;;;;18.55;61.23;102630.09;5090084;28;20161;-85
2022/10/03 12:35:36;;;;;;;6.95;1.75;;;;;;;18.46;62.46;102631.69;5090509;28;20027;-85
2022/10/03 12:38:20;;;;;;;6.10;1.95;;;;;;;18.34;64.04;102621.09;5090807;28;20483;-85
2022/10/03 12:40:58;;;;;;;6.95;2.20;;;;;;;18.19;62.55;102622.31;5092109;28;20364;-85
2022/10/03 12:43:53;;;;;;;8.30;2.17;;;;;;;18.39;62.34;102622.44;5089762;28;20403;-85
2022/10/03 12:46:28;;;;;;;8.07;1.80;;;;;;;18.47;60.58;102616.53;5076543;28;20048;-85
2022/10/03 12:49:08;;;;;;;7.93;1.70;;;;;;;18.49;58.08;102614.59;5090250;28;20008;-86
2022/10/03 12:51:44;;;;;;;9.60;2.17;;;;;;;18.65;61.77;102615.09;5091753;28;20024;-85
2022/10/03 12:54:31;;;;;;;7.95;1.85;;;;;;;18.73;58.45;102620.66;5109663;28;20019;-85
2022/10/03 12:57:03;;;;;;;9.30;1.83;;;;;;;18.66;57.68;102613.25;5110901;28;20364;-85